Time;durP1;ratioP1;P1;durP2;ratioP2;P2;SDS_P1;SDS_P2;PMS_P1;PMS_P2;Temp;Humidity;BMP_temperature;BMP_pressure;BME280_temperature;BME280_humidity;BME280_pressure;Samples;Min_cycle;Max_cycle;Signal;HPM_P1;HPM_P2
2023/02/17 00:01:59;;;;;;;110.88;60.97;;;5.30;99.90;;;;;;5077925;28;20181;-82
2023/02/17 00:04:27;;;;;;;111.97;65.78;;;5.30;99.90;;;;;;5077783;28;20176;-82
2023/02/17 00:06:53;;;;;;;117.07;68.38;;;5.20;99.90;;;;;;5077656;28;20187;-82
2023/02/17 00:09:19;;;;;;;110.37;65.00;;;5.20;99.90;;;;;;5095997;28;20168;-82
2023/02/17 00:11:45;;;;;;;117.87;64.60;;;5.20;99.90;;;;;;5077603;28;20702;-82
2023/02/17 00:14:12;;;;;;;120.13;64.67;;;5.20;99.90;;;;;;5095756;28;20643;-82
2023/02/17 00:16:37;;;;;;;104.63;61.03;;;5.20;99.90;;;;;;5095654;28;20421;-82
2023/02/17 00:19:22;;;;;;;119.60;68.57;;;5.10;99.90;;;;;;5077443;28;20241;-82
2023/02/17 00:21:59;;;;;;;113.25;66.18;;;5.00;99.90;;;;;;5077702;28;20475;-82
2023/02/17 00:24:30;;;;;;;115.03;67.20;;;5.00;99.90;;;;;;5095657;28;20160;-81
2023/02/17 00:26:55;;;;;;;113.88;63.20;;;5.10;99.90;;;;;;5077459;28;20185;-82
2023/02/17 00:29:21;;;;;;;110.23;63.73;;;5.10;99.90;;;;;;5077329;28;20172;-82
2023/02/17 00:31:47;;;;;;;108.83;63.27;;;5.10;99.90;;;;;;5095241;28;20219;-82
2023/02/17 00:34:13;;;;;;;130.27;78.57;;;5.10;99.90;;;;;;5095455;28;20173;-82
2023/02/17 00:36:39;;;;;;;136.37;77.60;;;5.20;99.90;;;;;;5095375;28;20438;-81
2023/02/17 00:39:05;;;;;;;109.20;67.40;;;5.20;99.90;;;;;;5077140;28;20769;-82
2023/02/17 00:41:32;;;;;;;118.20;68.38;;;5.10;99.90;;;;;;5095294;28;20413;-82
2023/02/17 00:43:58;;;;;;;114.70;67.57;;;5.10;99.90;;;;;;5077047;28;20222;-82
2023/02/17 00:46:25;;;;;;;118.82;67.57;;;5.10;99.90;;;;;;5095275;28;20222;-82
2023/02/17 00:48:51;;;;;;;106.55;63.90;;;5.20;99.90;;;;;;5095167;28;20192;-82
2023/02/17 00:51:17;;;;;;;100.53;59.42;;;5.30;99.90;;;;;;5095158;28;20269;-82
2023/02/17 00:53:44;;;;;;;107.82;60.38;;;5.30;99.90;;;;;;5076810;28;20197;-82
2023/02/17 00:56:09;;;;;;;96.15;58.45;;;5.30;99.90;;;;;;5095074;28;20544;-82
2023/02/17 00:58:35;;;;;;;105.47;59.90;;;5.30;99.90;;;;;;5076707;28;20198;-82
2023/02/17 01:01:01;;;;;;;107.60;60.85;;;5.40;99.90;;;;;;5076697;28;20445;-83
2023/02/17 01:03:28;;;;;;;107.03;58.58;;;5.40;99.90;;;;;;5076576;28;20241;-82
2023/02/17 01:05:54;;;;;;;96.30;59.15;;;5.50;99.90;;;;;;5094776;28;20167;-82
2023/02/17 01:08:21;;;;;;;100.13;58.30;;;5.50;99.90;;;;;;5076572;28;20227;-82
2023/02/17 01:10:49;;;;;;;96.53;57.30;;;5.50;99.90;;;;;;5094497;28;20201;-81
2023/02/17 01:13:16;;;;;;;104.30;60.78;;;5.50;99.90;;;;;;5076025;28;20236;-82
2023/02/17 01:15:44;;;;;;;104.43;62.00;;;5.50;99.90;;;;;;5094702;28;20173;-82
2023/02/17 01:18:10;;;;;;;97.78;58.35;;;5.50;99.90;;;;;;5076585;28;20196;-82
2023/02/17 01:20:40;;;;;;;104.17;58.43;;;5.40;99.90;;;;;;5076307;28;20172;-82
2023/02/17 01:23:07;;;;;;;88.20;54.50;;;5.30;99.90;;;;;;5094983;28;20287;-82
2023/02/17 01:25:44;;;;;;;99.95;59.25;;;5.20;99.90;;;;;;5094479;28;20184;-82
2023/02/17 01:28:19;;;;;;;97.95;57.72;;;5.10;99.90;;;;;;5094310;28;20200;-82
2023/02/17 01:30:44;;;;;;;102.30;57.35;;;5.00;99.90;;;;;;5076051;28;20211;-82
2023/02/17 01:33:10;;;;;;;101.97;59.47;;;4.80;99.90;;;;;;5076347;28;20533;-82
2023/02/17 01:35:36;;;;;;;106.47;58.40;;;4.80;99.90;;;;;;5076209;28;20202;-82
2023/02/17 01:38:02;;;;;;;106.40;62.43;;;4.70;99.90;;;;;;5094866;28;20199;-81
2023/02/17 01:40:29;;;;;;;111.57;60.33;;;4.70;99.90;;;;;;5094118;28;20459;-81
2023/02/17 01:42:54;;;;;;;99.97;56.97;;;4.80;99.90;;;;;;5075796;28;20423;-82
2023/02/17 01:45:20;;;;;;;98.50;57.80;;;4.80;99.90;;;;;;5075576;28;20263;-81
2023/02/17 01:47:59;;;;;;;99.10;56.77;;;4.90;99.90;;;;;;5076004;28;20200;-83
2023/02/17 01:50:31;;;;;;;103.78;57.75;;;5.00;99.90;;;;;;5094074;28;20287;-81
2023/02/17 01:52:58;;;;;;;96.88;57.88;;;4.90;99.90;;;;;;5094290;28;20188;-82
2023/02/17 01:55:25;;;;;;;101.65;57.50;;;4.80;99.90;;;;;;5075804;28;20176;-82
2023/02/17 01:57:55;;;;;;;92.13;55.05;;;4.70;99.90;;;;;;5094305;28;20200;-82
2023/02/17 02:00:22;;;;;;;95.40;56.25;;;4.60;99.90;;;;;;5075879;28;20190;-82
2023/02/17 02:02:49;;;;;;;94.43;54.03;;;4.50;99.90;;;;;;5094159;28;20551;-82
2023/02/17 02:05:17;;;;;;;100.45;55.08;;;4.50;99.90;;;;;;5093823;28;20172;-82
2023/02/17 02:07:45;;;;;;;102.57;57.03;;;4.60;99.90;;;;;;5075809;28;20234;-82
2023/02/17 02:10:12;;;;;;;89.85;55.42;;;4.60;99.90;;;;;;5093718;28;20738;-82
2023/02/17 02:12:40;;;;;;;94.70;53.20;;;4.70;99.90;;;;;;5094098;28;20624;-82
2023/02/17 02:15:10;;;;;;;89.57;52.30;;;4.80;99.90;;;;;;5093882;28;20263;-82
2023/02/17 02:17:41;;;;;;;87.38;51.53;;;4.90;99.90;;;;;;5094029;28;20200;-82
2023/02/17 02:20:18;;;;;;;87.88;50.72;;;5.00;99.90;;;;;;5093796;28;20671;-82
2023/02/17 02:22:59;;;;;;;93.13;53.47;;;5.00;99.90;;;;;;5094008;28;20751;-82
2023/02/17 02:25:43;;;;;;;92.68;51.85;;;5.00;99.90;;;;;;5093734;28;20164;-82
2023/02/17 02:28:36;;;;;;;92.75;51.67;;;5.10;99.90;;;;;;5094030;28;20286;-82
2023/02/17 02:31:28;;;;;;;94.70;53.35;;;5.10;99.90;;;;;;5093547;28;20203;-82
2023/02/17 02:34:01;;;;;;;87.78;51.47;;;5.10;99.90;;;;;;5075501;28;20188;-81
2023/02/17 02:36:33;;;;;;;91.63;54.50;;;5.20;99.90;;;;;;5093711;28;20180;-82
2023/02/17 02:39:09;;;;;;;81.78;49.38;;;5.10;99.90;;;;;;5075382;28;20192;-82
2023/02/17 02:41:57;;;;;;;87.68;52.40;;;5.00;99.90;;;;;;5093676;28;20708;-82
2023/02/17 02:44:23;;;;;;;86.65;53.65;;;5.00;99.90;;;;;;5075427;28;20176;-82
2023/02/17 02:47:00;;;;;;;94.23;53.27;;;5.10;99.90;;;;;;5075293;28;20188;-82
2023/02/17 02:49:28;;;;;;;99.85;54.65;;;5.20;99.90;;;;;;5075426;28;20562;-82
2023/02/17 02:51:57;;;;;;;99.90;58.35;;;5.20;99.90;;;;;;5093208;28;20216;-82
2023/02/17 02:54:45;;;;;;;88.00;56.00;;;5.30;99.90;;;;;;5093425;28;20175;-82
2023/02/17 02:57:55;;;;;;;91.55;54.80;;;5.30;99.90;;;;;;5075775;28;20566;-81
2023/02/17 03:00:41;;;;;;;97.38;56.25;;;5.30;99.90;;;;;;5097345;28;20209;-82
2023/02/17 03:03:24;;;;;;;104.75;56.97;;;5.30;99.90;;;;;;5097789;28;20556;-82
2023/02/17 03:06:09;;;;;;;105.28;58.00;;;5.30;99.90;;;;;;5097301;28;20653;-82
2023/02/17 03:08:40;;;;;;;105.53;58.95;;;5.20;99.90;;;;;;5097111;28;20291;-82
2023/02/17 03:11:06;;;;;;;103.28;56.65;;;5.30;99.90;;;;;;5096991;28;20204;-82
2023/02/17 03:13:36;;;;;;;116.23;61.97;;;5.30;99.90;;;;;;5096851;28;20238;-82
2023/02/17 03:16:02;;;;;;;109.45;62.17;;;5.30;99.90;;;;;;5078985;28;20177;-82
2023/02/17 03:18:31;;;;;;;95.77;56.93;;;5.20;99.90;;;;;;5078572;28;20248;-82
2023/02/17 03:21:03;;;;;;;116.25;63.55;;;5.00;99.90;;;;;;5078613;28;20401;-82
2023/02/17 03:23:28;;;;;;;108.25;61.53;;;4.90;99.90;;;;;;5078554;28;20199;-81
2023/02/17 03:25:54;;;;;;;108.77;61.90;;;4.80;99.90;;;;;;5078665;28;20177;-81
2023/02/17 03:28:20;;;;;;;119.50;64.93;;;4.80;99.90;;;;;;5078372;28;20196;-82
2023/02/17 03:30:45;;;;;;;119.40;64.90;;;4.80;99.90;;;;;;5096683;28;20204;-81
2023/02/17 03:33:11;;;;;;;110.23;62.90;;;4.80;99.90;;;;;;5078594;28;20613;-81
2023/02/17 03:35:37;;;;;;;114.77;61.67;;;4.80;99.90;;;;;;5096654;28;20176;-82
2023/02/17 03:38:03;;;;;;;109.53;62.67;;;4.80;99.90;;;;;;5096899;28;20232;-82
2023/02/17 03:40:29;;;;;;;113.18;65.53;;;4.80;99.90;;;;;;5078245;28;20177;-82
2023/02/17 03:42:56;;;;;;;110.88;66.43;;;4.80;99.90;;;;;;5096758;28;20205;-82
2023/02/17 03:45:22;;;;;;;114.57;65.28;;;4.80;99.90;;;;;;5078247;28;20173;-82
2023/02/17 03:47:47;;;;;;;116.33;63.67;;;4.80;99.90;;;;;;5077933;28;20684;-82
2023/02/17 03:50:13;;;;;;;112.33;63.23;;;4.80;99.90;;;;;;5078117;28;20205;-82
2023/02/17 03:52:39;;;;;;;111.03;64.80;;;4.70;99.90;;;;;;5096472;28;20204;-82
2023/02/17 03:55:05;;;;;;;107.67;63.50;;;4.60;99.90;;;;;;5096245;28;20263;-82
2023/02/17 03:57:31;;;;;;;112.53;64.70;;;4.60;99.90;;;;;;5078088;28;20675;-82
2023/02/17 03:59:57;;;;;;;103.85;62.42;;;4.60;99.90;;;;;;5078051;28;20179;-82
2023/02/17 04:02:23;;;;;;;101.97;60.20;;;4.70;99.90;;;;;;5096282;28;20200;-82
2023/02/17 04:04:48;;;;;;;122.27;66.80;;;4.80;99.90;;;;;;5078009;28;20479;-83
2023/02/17 04:07:14;;;;;;;120.83;66.07;;;4.90;99.90;;;;;;5096247;28;20449;-82
2023/02/17 04:09:40;;;;;;;121.38;69.07;;;4.90;99.90;;;;;;5095535;28;20176;-82
2023/02/17 04:12:06;;;;;;;130.20;68.73;;;4.90;99.90;;;;;;5077715;28;20621;-82
2023/02/17 04:14:32;;;;;;;127.93;65.90;;;4.90;99.90;;;;;;5095824;28;20230;-82
2023/02/17 04:16:57;;;;;;;120.97;67.57;;;4.80;99.90;;;;;;5096171;28;20208;-82
2023/02/17 04:19:23;;;;;;;127.23;67.30;;;4.80;99.90;;;;;;5095817;28;20176;-82
2023/02/17 04:21:49;;;;;;;125.73;66.03;;;4.70;99.90;;;;;;5077479;28;20234;-82
2023/02/17 04:24:14;;;;;;;119.30;64.80;;;4.70;99.90;;;;;;5077583;28;20179;-81
2023/02/17 04:26:40;;;;;;;115.17;59.60;;;4.60;99.90;;;;;;5077378;28;20181;-82
2023/02/17 04:29:06;;;;;;;109.13;59.70;;;4.60;99.90;;;;;;5095647;28;20570;-82
2023/02/17 04:31:31;;;;;;;108.83;59.50;;;4.60;99.90;;;;;;5077218;28;20573;-82
2023/02/17 04:33:57;;;;;;;97.20;56.00;;;4.50;99.90;;;;;;5077368;28;20559;-82
2023/02/17 04:36:24;;;;;;;92.77;55.20;;;4.50;99.90;;;;;;5077348;28;20207;-83
2023/02/17 04:38:49;;;;;;;95.38;54.13;;;4.60;99.90;;;;;;5077241;28;20287;-83
2023/02/17 04:41:15;;;;;;;98.40;55.57;;;4.80;99.90;;;;;;5095459;28;20277;-83
2023/02/17 04:43:41;;;;;;;95.73;54.53;;;4.80;99.90;;;;;;5077016;28;20665;-82
2023/02/17 04:46:06;;;;;;;94.47;50.90;;;4.90;99.90;;;;;;5077104;28;20808;-82
2023/02/17 04:48:32;;;;;;;100.57;54.43;;;4.90;99.90;;;;;;5095129;28;20219;-82
2023/02/17 04:50:58;;;;;;;93.53;58.57;;;5.00;99.90;;;;;;5076859;28;20216;-82
2023/02/17 04:53:23;;;;;;;92.90;55.03;;;5.00;99.90;;;;;;5076877;28;20280;-82
2023/02/17 04:55:51;;;;;;;86.10;51.27;;;5.00;99.90;;;;;;5094858;28;20183;-82
2023/02/17 04:58:18;;;;;;;91.93;51.67;;;5.00;99.90;;;;;;5095424;28;20665;-83
2023/02/17 05:00:46;;;;;;;83.30;52.28;;;5.10;99.90;;;;;;5076767;28;20241;-82
2023/02/17 05:03:12;;;;;;;124.85;74.57;;;5.00;99.90;;;;;;5095240;28;20208;-82
2023/02/17 05:05:38;;;;;;;123.70;73.63;;;5.00;99.90;;;;;;5076684;28;20181;-82
2023/02/17 05:08:04;;;;;;;113.97;63.67;;;5.10;99.90;;;;;;5076480;28;20543;-82
2023/02/17 05:10:29;;;;;;;90.93;56.37;;;5.10;99.90;;;;;;5094704;28;20461;-82
2023/02/17 05:12:55;;;;;;;93.40;55.37;;;5.00;99.90;;;;;;5076442;28;20962;-83
2023/02/17 05:15:21;;;;;;;87.83;54.37;;;4.90;99.90;;;;;;5073032;28;20250;-82
2023/02/17 05:17:46;;;;;;;93.10;54.27;;;4.90;99.90;;;;;;5074535;28;20208;-82
2023/02/17 05:20:12;;;;;;;93.10;52.37;;;5.00;99.90;;;;;;5072495;28;20420;-83
2023/02/17 05:22:38;;;;;;;98.40;53.83;;;4.90;99.90;;;;;;5073039;28;20213;-82
2023/02/17 05:25:04;;;;;;;91.77;53.63;;;4.90;99.90;;;;;;5074300;28;20405;-82
2023/02/17 05:27:30;;;;;;;97.78;56.67;;;5.00;99.90;;;;;;5074426;28;20204;-82
2023/02/17 05:29:56;;;;;;;97.10;60.17;;;4.90;99.90;;;;;;5074091;28;20185;-82
2023/02/17 05:32:22;;;;;;;96.63;62.20;;;4.90;99.90;;;;;;5072507;28;20205;-82
2023/02/17 05:34:48;;;;;;;108.55;63.60;;;4.90;99.90;;;;;;5072808;28;20219;-82
2023/02/17 05:37:14;;;;;;;87.93;51.87;;;4.80;99.90;;;;;;5066199;28;20655;-82
2023/02/17 05:39:40;;;;;;;97.53;53.30;;;4.60;99.90;;;;;;5061545;28;20443;-82
2023/02/17 05:42:05;;;;;;;104.43;58.57;;;4.50;99.90;;;;;;5063610;28;20197;-81
2023/02/17 05:44:31;;;;;;;99.00;56.13;;;4.40;99.90;;;;;;5053833;28;20166;-82
2023/02/17 05:46:57;;;;;;;87.53;53.90;;;4.50;99.90;;;;;;5052626;28;20235;-82
2023/02/17 05:49:22;;;;;;;89.60;53.80;;;4.60;99.90;;;;;;5052526;28;20643;-82
2023/02/17 05:51:48;;;;;;;92.33;54.73;;;4.60;99.90;;;;;;5053729;28;20561;-82
2023/02/17 05:54:14;;;;;;;92.70;54.90;;;4.70;99.90;;;;;;5058536;28;20228;-82
2023/02/17 05:56:40;;;;;;;92.67;57.10;;;4.70;99.90;;;;;;5065456;28;20922;-82
2023/02/17 05:59:05;;;;;;;93.30;57.00;;;4.80;99.90;;;;;;5055505;28;20193;-82
2023/02/17 06:01:31;;;;;;;110.27;61.57;;;4.80;99.90;;;;;;5053500;28;20662;-82
2023/02/17 06:03:57;;;;;;;165.87;93.10;;;4.90;99.90;;;;;;5053470;28;20238;-82
2023/02/17 06:06:23;;;;;;;145.90;86.90;;;4.80;99.90;;;;;;5052358;28;20247;-82
2023/02/17 06:08:50;;;;;;;114.30;69.80;;;4.80;99.90;;;;;;5053381;28;20503;-82
2023/02/17 06:11:15;;;;;;;95.97;59.05;;;4.90;99.90;;;;;;5053282;28;20770;-82
2023/02/17 06:13:41;;;;;;;95.33;55.97;;;4.90;99.90;;;;;;5066731;28;20252;-83
2023/02/17 06:16:07;;;;;;;120.93;69.70;;;4.90;99.90;;;;;;5102650;28;20644;-83
2023/02/17 06:18:33;;;;;;;122.47;70.47;;;5.00;99.90;;;;;;5092490;28;20551;-82
2023/02/17 06:20:58;;;;;;;111.53;63.47;;;4.90;99.90;;;;;;5093604;28;20177;-82
2023/02/17 06:23:25;;;;;;;96.73;57.47;;;4.90;99.90;;;;;;5091329;28;20605;-81
2023/02/17 06:25:51;;;;;;;150.98;85.32;;;4.80;99.90;;;;;;5097191;28;20435;-82
2023/02/17 06:28:17;;;;;;;180.25;118.07;;;4.80;99.90;;;;;;5097212;28;20694;-83
2023/02/17 06:30:43;;;;;;;141.10;86.30;;;4.70;99.90;;;;;;5106445;28;20272;-81
2023/02/17 06:33:09;;;;;;;130.07;79.55;;;4.70;99.90;;;;;;5109797;28;20979;-82
2023/02/17 06:35:34;;;;;;;109.40;70.60;;;4.90;99.90;;;;;;5110873;28;20245;-81
2023/02/17 06:38:01;;;;;;;205.00;105.47;;;4.90;99.90;;;;;;5101976;27;20207;-82
2023/02/17 06:40:26;;;;;;;148.02;82.68;;;4.80;99.90;;;;;;5124751;27;20577;-82
2023/02/17 06:42:52;;;;;;;152.47;84.70;;;4.90;99.90;;;;;;5116625;28;20200;-82
2023/02/17 06:45:18;;;;;;;162.03;90.33;;;5.10;99.90;;;;;;5095422;28;20192;-82
2023/02/17 06:47:43;;;;;;;164.03;97.50;;;5.20;99.90;;;;;;5091637;28;20600;-82
2023/02/17 06:50:10;;;;;;;190.10;103.40;;;5.20;99.90;;;;;;5112216;28;20171;-83
2023/02/17 06:52:36;;;;;;;180.35;90.47;;;5.20;99.90;;;;;;5096792;28;20226;-82
2023/02/17 06:55:02;;;;;;;129.65;70.35;;;5.40;99.90;;;;;;5114239;28;20302;-82
2023/02/17 06:57:27;;;;;;;103.77;61.10;;;5.50;99.90;;;;;;5115622;28;20294;-82
2023/02/17 06:59:53;;;;;;;92.53;56.43;;;5.60;99.90;;;;;;5115812;28;20179;-82
2023/02/17 07:02:19;;;;;;;101.23;56.47;;;5.80;99.90;;;;;;5099315;28;20317;-82
2023/02/17 07:04:44;;;;;;;99.97;58.40;;;5.90;99.90;;;;;;5115217;28;20187;-81
2023/02/17 07:07:10;;;;;;;84.57;52.77;;;5.90;99.90;;;;;;5095371;28;20452;-81
2023/02/17 07:09:37;;;;;;;93.20;56.90;;;6.10;99.90;;;;;;5093350;28;20172;-82
2023/02/17 07:12:03;;;;;;;85.32;50.53;;;6.30;99.90;;;;;;5108557;28;20219;-82
2023/02/17 07:14:31;;;;;;;86.30;53.47;;;6.40;99.90;;;;;;5109050;28;20526;-82
2023/02/17 07:16:56;;;;;;;88.82;56.53;;;6.50;99.90;;;;;;5110170;28;20418;-82
2023/02/17 07:19:22;;;;;;;111.93;66.30;;;6.60;99.90;;;;;;5093147;28;20168;-81
2023/02/17 07:21:48;;;;;;;114.70;65.87;;;6.70;99.90;;;;;;5112030;28;20431;-82
2023/02/17 07:24:14;;;;;;;89.60;52.10;;;6.90;99.90;;;;;;5112911;28;20419;-82
2023/02/17 07:26:39;;;;;;;80.13;47.60;;;7.10;99.90;;;;;;5095777;28;20187;-83
2023/02/17 07:29:06;;;;;;;82.23;48.17;;;7.40;99.90;;;;;;5091246;28;20194;-82
2023/02/17 07:31:33;;;;;;;88.85;54.42;;;7.60;99.90;;;;;;5096053;28;20216;-83
2023/02/17 07:34:00;;;;;;;80.20;50.85;;;7.90;99.90;;;;;;5094248;28;20204;-83
2023/02/17 07:36:26;;;;;;;71.25;45.75;;;8.10;99.90;;;;;;5111402;28;20396;-83
2023/02/17 07:38:52;;;;;;;73.60;47.67;;;8.40;99.90;;;;;;5090533;28;20226;-81
2023/02/17 07:41:21;;;;;;;71.07;44.77;;;8.60;99.90;;;;;;5082323;28;20237;-81
2023/02/17 07:43:48;;;;;;;73.85;47.25;;;8.80;99.90;;;;;;5091587;28;20435;-81
2023/02/17 07:46:14;;;;;;;70.57;44.35;;;9.00;99.90;;;;;;5110997;28;20829;-82
2023/02/17 07:48:40;;;;;;;66.20;42.83;;;9.20;99.90;;;;;;5092603;28;20191;-81
2023/02/17 07:51:11;;;;;;;65.60;42.78;;;9.30;99.90;;;;;;5093511;28;20707;-82
2023/02/17 07:53:38;;;;;;;66.93;41.63;;;9.40;99.90;;;;;;5113658;28;20244;-82
2023/02/17 07:56:06;;;;;;;67.68;45.25;;;9.50;99.90;;;;;;5114131;28;20225;-82
2023/02/17 07:58:33;;;;;;;68.13;43.95;;;9.70;99.90;;;;;;5113664;28;20677;-82
2023/02/17 08:01:08;;;;;;;61.53;41.75;;;9.80;99.90;;;;;;5113536;28;20541;-81
2023/02/17 08:03:34;;;;;;;61.65;41.80;;;9.90;99.90;;;;;;5093333;28;20250;-81
2023/02/17 08:05:59;;;;;;;74.80;46.43;;;9.90;99.90;;;;;;5093947;28;20171;-82
2023/02/17 08:13:59;;;;;;;67.60;44.30;;;10.00;99.90;;;;;;5105951;28;20240;-82
2023/02/17 08:16:26;;;;;;;70.60;44.70;;;10.00;99.90;;;;;;5090212;28;20184;-81
2023/02/17 08:18:54;;;;;;;65.35;43.53;;;10.10;99.90;;;;;;5099382;28;20440;-82
2023/02/17 08:21:21;;;;;;;71.22;45.15;;;10.10;99.90;;;;;;5094031;28;20180;-82
2023/02/17 08:23:47;;;;;;;71.10;48.08;;;10.10;99.90;;;;;;5110793;28;20587;-82
2023/02/17 08:26:13;;;;;;;70.10;46.53;;;10.10;99.90;;;;;;5112911;28;20152;-82
2023/02/17 08:28:39;;;;;;;93.90;53.92;;;10.20;99.90;;;;;;5113837;28;20556;-82
2023/02/17 08:31:05;;;;;;;83.53;48.58;;;10.20;99.90;;;;;;5113699;28;20204;-81
2023/02/17 08:33:31;;;;;;;144.17;86.43;;;10.10;99.90;;;;;;5113393;28;20184;-82
2023/02/17 08:35:57;;;;;;;94.97;55.03;;;10.00;99.90;;;;;;5113938;28;20538;-82
2023/02/17 08:38:22;;;;;;;92.67;52.83;;;10.10;99.90;;;;;;5114147;28;20420;-82
2023/02/17 08:40:48;;;;;;;91.30;64.07;;;10.20;99.90;;;;;;5094502;28;20184;-82
2023/02/17 08:43:14;;;;;;;76.23;48.60;;;10.30;99.90;;;;;;5095879;28;20227;-83
2023/02/17 08:45:40;;;;;;;81.20;47.92;;;10.40;99.90;;;;;;5115552;28;20167;-81
2023/02/17 08:48:05;;;;;;;64.33;40.73;;;10.50;99.90;;;;;;5095679;28;20569;-83
2023/02/17 08:50:32;;;;;;;70.03;41.73;;;10.60;99.90;;;;;;5110488;28;20211;-83
2023/02/17 08:52:58;;;;;;;59.45;41.40;;;10.80;99.90;;;;;;5091387;28;20196;-83
2023/02/17 08:55:24;;;;;;;72.17;47.07;;;10.90;99.90;;;;;;5101819;28;20210;-83
2023/02/17 08:57:49;;;;;;;61.33;42.40;;;11.00;99.90;;;;;;5086135;28;20478;-83
2023/02/17 09:00:17;;;;;;;58.80;38.30;;;11.10;99.90;;;;;;5087905;28;20409;-83
2023/02/17 09:02:44;;;;;;;64.80;41.00;;;11.20;99.90;;;;;;5086920;28;20295;-83
2023/02/17 09:05:12;;;;;;;58.95;39.10;;;11.30;99.90;;;;;;5082598;28;20868;-82
2023/02/17 09:07:38;;;;;;;59.28;41.00;;;11.30;99.90;;;;;;5108723;28;20203;-83
2023/02/17 09:10:06;;;;;;;68.90;39.92;;;11.40;99.90;;;;;;5091283;28;20613;-83
2023/02/17 09:12:33;;;;;;;59.55;39.78;;;11.50;99.90;;;;;;5092671;28;20575;-84
2023/02/17 09:14:59;;;;;;;64.20;38.50;;;11.70;99.90;;;;;;5091500;28;20235;-82
2023/02/17 09:17:26;;;;;;;59.58;40.58;;;11.80;99.90;;;;;;5089520;28;20258;-83
2023/02/17 09:19:52;;;;;;;66.30;43.67;;;11.90;99.90;;;;;;5107527;28;20191;-84
2023/02/17 09:22:19;;;;;;;61.50;42.00;;;11.90;99.90;;;;;;5109706;28;20211;-83
2023/02/17 09:24:45;;;;;;;61.70;40.85;;;12.00;99.90;;;;;;5112021;28;20262;-82
2023/02/17 09:27:12;;;;;;;59.30;41.37;;;11.90;99.90;;;;;;5094128;28;20661;-83
2023/02/17 09:29:39;;;;;;;55.50;39.00;;;11.80;99.90;;;;;;5089183;28;20436;-83
2023/02/17 09:32:08;;;;;;;58.40;39.30;;;11.80;99.90;;;;;;5092967;28;20570;-83
2023/02/17 09:34:38;;;;;;;60.53;38.87;;;11.80;99.90;;;;;;5109820;28;21014;-83
2023/02/17 09:37:09;;;;;;;57.00;38.30;;;11.80;99.90;;;;;;5088161;28;20462;-83
2023/02/17 09:39:34;;;;;;;60.47;38.70;;;11.80;99.90;;;;;;5102542;28;20436;-83
2023/02/17 09:42:00;;;;;;;54.73;36.10;;;11.80;99.90;;;;;;5091422;28;20206;-82
2023/02/17 09:44:39;;;;;;;58.00;39.27;;;11.90;99.90;;;;;;5101775;28;20187;-83
2023/02/17 09:47:24;;;;;;;61.88;38.67;;;12.00;99.90;;;;;;5089920;28;20287;-83
2023/02/17 09:50:08;;;;;;;60.70;38.00;;;12.00;99.90;;;;;;5108081;28;20167;-83
2023/02/17 09:52:37;;;;;;;52.80;35.87;;;11.90;99.90;;;;;;5087235;28;20456;-82
2023/02/17 09:55:17;;;;;;;53.80;37.50;;;11.90;99.90;;;;;;5090303;28;20434;-83
2023/02/17 09:58:12;;;;;;;53.60;34.25;;;11.90;99.90;;;;;;5080544;28;20456;-83
2023/02/17 10:00:44;;;;;;;53.87;36.23;;;12.00;99.90;;;;;;5087194;28;20180;-82
2023/02/17 10:03:15;;;;;;;59.22;36.67;;;11.90;99.90;;;;;;5090929;28;20474;-82
2023/02/17 10:05:54;;;;;;;54.97;39.30;;;12.00;99.90;;;;;;5109242;28;20705;-82
2023/02/17 10:08:25;;;;;;;60.13;37.30;;;12.20;99.90;;;;;;5092930;28;20448;-82
2023/02/17 10:11:02;;;;;;;52.50;35.93;;;12.40;99.90;;;;;;5092328;28;20455;-83
2023/02/17 10:13:32;;;;;;;59.80;37.20;;;12.30;99.90;;;;;;5089962;28;20489;-83
2023/02/17 10:16:03;;;;;;;55.20;37.53;;;12.30;99.90;;;;;;5105037;28;20440;-84
2023/02/17 10:18:39;;;;;;;56.57;39.67;;;12.40;99.90;;;;;;5087488;28;20448;-83
2023/02/17 10:21:20;;;;;;;51.10;35.90;;;12.50;99.90;;;;;;5091618;28;20400;-82
2023/02/17 10:23:46;;;;;;;51.80;34.93;;;12.60;99.90;;;;;;5088353;28;20439;-83
2023/02/17 10:26:30;;;;;;;52.50;37.80;;;12.80;99.90;;;;;;5087008;28;20432;-83
2023/02/17 10:29:12;;;;;;;50.10;33.23;;;12.90;99.90;;;;;;5082913;28;21071;-82
2023/02/17 10:31:47;;;;;;;45.07;30.73;;;12.90;99.90;;;;;;5101388;28;20475;-81
2023/02/17 10:34:34;;;;;;;52.53;34.77;;;13.00;99.90;;;;;;5078828;28;21203;-82
2023/02/17 10:37:02;;;;;;;59.10;40.77;;;13.20;99.90;;;;;;5100602;28;20479;-82
2023/02/17 10:39:47;;;;;;;47.10;32.93;;;13.30;99.90;;;;;;5101082;28;20432;-82
2023/02/17 10:42:21;;;;;;;41.83;27.90;;;13.60;99.90;;;;;;5087135;28;20494;-82
2023/02/17 10:44:49;;;;;;;37.97;29.23;;;14.00;99.90;;;;;;5103006;28;20527;-82
2023/02/17 10:47:16;;;;;;;38.93;29.70;;;14.30;99.90;;;;;;5086272;28;20449;-83
2023/02/17 10:49:45;;;;;;;35.70;25.10;;;14.50;99.90;;;;;;5084150;28;20496;-84
2023/02/17 10:52:37;;;;;;;37.97;26.43;;;14.90;99.90;;;;;;5082001;28;20480;-83
2023/02/17 10:55:22;;;;;;;35.67;24.33;;;15.10;99.90;;;;;;5087269;28;20428;-83
2023/02/17 10:57:53;;;;;;;34.63;25.13;;;15.20;99.90;;;;;;5080553;28;20880;-83
2023/02/17 11:00:20;;;;;;;31.67;24.67;;;15.20;99.90;;;;;;5099705;28;20540;-84
2023/02/17 11:02:51;;;;;;;37.17;26.67;;;15.40;99.90;;;;;;5086636;28;20546;-83
2023/02/17 11:05:34;;;;;;;35.67;23.80;;;15.60;99.90;;;;;;5082120;28;20521;-84
2023/02/17 11:08:35;;;;;;;35.10;23.17;;;15.90;99.90;;;;;;5096116;28;20534;-84
2023/02/17 11:11:14;;;;;;;29.87;20.67;;;15.90;99.90;;;;;;5100044;28;21032;-83
2023/02/17 11:13:45;;;;;;;27.13;20.80;;;15.90;98.90;;;;;;5080053;28;20515;-84
2023/02/17 11:16:25;;;;;;;31.13;20.67;;;15.90;98.50;;;;;;5104556;28;20412;-85
2023/02/17 11:18:52;;;;;;;30.90;21.07;;;15.80;97.50;;;;;;5093340;28;20831;-84
2023/02/17 11:21:17;;;;;;;32.93;23.07;;;15.70;97.40;;;;;;5089053;28;20436;-82
2023/02/17 11:24:01;;;;;;;32.73;21.90;;;15.60;97.20;;;;;;5103012;28;20477;-83
2023/02/17 11:26:30;;;;;;;34.13;21.50;;;15.70;96.70;;;;;;5099138;28;20589;-84
2023/02/17 11:29:20;;;;;;;33.90;23.40;;;15.70;97.00;;;;;;5097166;28;20439;-84
2023/02/17 11:32:07;;;;;;;29.77;19.80;;;15.70;97.00;;;;;;5107813;28;20537;-83
2023/02/17 11:34:39;;;;;;;31.83;20.20;;;15.70;96.30;;;;;;5087128;28;20462;-84
2023/02/17 11:37:18;;;;;;;42.80;31.30;;;15.70;96.30;;;;;;5106068;28;21054;-84
2023/02/17 11:39:50;;;;;;;35.03;22.90;;;15.60;96.20;;;;;;5105796;28;20404;-84
2023/02/17 11:42:19;;;;;;;36.73;26.20;;;15.50;96.50;;;;;;5086784;28;20895;-82
2023/02/17 11:44:45;;;;;;;33.73;21.20;;;15.50;96.20;;;;;;5099433;28;20436;-84
2023/02/17 11:47:17;;;;;;;41.27;24.10;;;15.50;96.10;;;;;;5111505;28;20451;-82
2023/02/17 11:50:09;;;;;;;33.53;22.43;;;15.60;96.20;;;;;;5082419;28;20952;-83
2023/02/17 11:52:56;;;;;;;39.93;28.30;;;15.60;96.50;;;;;;5082287;28;20480;-82
2023/02/17 11:56:01;;;;;;;41.47;30.10;;;15.50;96.30;;;;;;5087268;28;21040;-82
2023/02/17 11:58:35;;;;;;;43.27;25.40;;;15.50;96.40;;;;;;5086753;28;20460;-82
2023/02/17 12:01:33;;;;;;;37.00;22.10;;;15.60;96.80;;;;;;5083510;28;20443;-84
2023/02/17 12:04:20;;;;;;;35.97;25.30;;;15.60;96.10;;;;;;5087378;28;20510;-82
2023/02/17 12:06:58;;;;;;;34.93;23.47;;;15.60;96.20;;;;;;5085829;28;20518;-82
2023/02/17 12:09:32;;;;;;;34.73;23.63;;;15.80;96.60;;;;;;5105670;28;20429;-83
2023/02/17 12:12:00;;;;;;;33.33;24.50;;;15.90;96.50;;;;;;5082875;28;20814;-83
2023/02/17 12:14:42;;;;;;;37.30;24.03;;;16.00;96.90;;;;;;5082882;28;20468;-82
2023/02/17 12:17:29;;;;;;;32.90;22.50;;;16.00;96.80;;;;;;5099415;28;20460;-82
2023/02/17 12:20:21;;;;;;;38.80;24.20;;;16.20;96.70;;;;;;5086010;28;20425;-81
2023/02/17 12:23:07;;;;;;;37.60;24.90;;;16.20;96.70;;;;;;5057416;28;20448;-83
2023/02/17 12:26:02;;;;;;;35.77;24.10;;;16.30;97.20;;;;;;5101282;28;20428;-82
2023/02/17 12:28:45;;;;;;;34.13;24.70;;;16.40;97.00;;;;;;5085051;28;20456;-82
2023/02/17 12:31:23;;;;;;;39.57;25.43;;;16.40;97.30;;;;;;5091498;28;20463;-83
2023/02/17 12:34:05;;;;;;;34.83;24.40;;;16.50;97.40;;;;;;5084009;28;20496;-83
2023/02/17 12:36:35;;;;;;;34.00;23.00;;;16.60;97.30;;;;;;5089259;28;20816;-82
2023/02/17 12:39:24;;;;;;;35.27;23.80;;;16.70;97.20;;;;;;5078331;28;20432;-82
2023/02/17 12:42:00;;;;;;;34.93;25.57;;;16.80;97.10;;;;;;5107293;27;20435;-83
2023/02/17 12:44:35;;;;;;;34.63;23.90;;;16.70;97.30;;;;;;5086572;28;20625;-84
2023/02/17 12:47:12;;;;;;;34.70;25.00;;;16.80;97.00;;;;;;5116410;27;20443;-82
2023/02/17 12:49:59;;;;;;;37.67;24.90;;;16.80;97.00;;;;;;5082996;28;20451;-84
2023/02/17 12:52:29;;;;;;;34.27;24.20;;;17.00;97.50;;;;;;5107201;28;20562;-82